createdAt,value
2023-02-11T00:00:00.984Z,17.60
2023-02-11T00:01:00.952Z,19.70
2023-02-11T00:02:01.068Z,21.30
2023-02-11T00:03:01.913Z,19.50
2023-02-11T00:03:59.939Z,20.10
2023-02-11T00:04:59.920Z,20.40
2023-02-11T00:06:00.939Z,18.60
2023-02-11T00:07:00.860Z,19.90
2023-02-11T00:08:01.847Z,18.80
2023-02-11T00:09:00.871Z,19.30
2023-02-11T00:09:59.882Z,20.90
2023-02-11T00:10:59.871Z,20.70
2023-02-11T00:12:00.807Z,19.70
2023-02-11T00:13:00.847Z,19.00
2023-02-11T00:14:01.723Z,19.50
2023-02-11T00:15:00.779Z,18.70
2023-02-11T00:16:00.751Z,20.60
2023-02-11T00:17:00.877Z,19.30
2023-02-11T00:18:00.738Z,20.00
2023-02-11T00:19:01.637Z,19.60
2023-02-11T00:20:00.707Z,19.30
2023-02-11T00:21:00.730Z,20.10
2023-02-11T00:22:00.687Z,18.70
2023-02-11T00:23:00.700Z,20.20
2023-02-11T00:24:01.601Z,20.60
2023-02-11T00:25:00.628Z,18.90
2023-02-11T00:25:59.707Z,19.90
2023-02-11T00:26:59.706Z,19.50
2023-02-11T00:27:59.658Z,20.00
2023-02-11T00:29:01.528Z,19.00
2023-02-11T00:30:00.574Z,19.60
2023-02-11T00:30:59.649Z,18.80
2023-02-11T00:31:59.614Z,19.90
2023-02-11T00:32:59.707Z,18.70
2023-02-11T00:34:00.559Z,19.00
2023-02-11T00:35:00.515Z,19.10
2023-02-11T00:35:59.542Z,18.60
2023-02-11T00:36:59.548Z,19.90
2023-02-11T00:37:59.511Z,20.60
2023-02-11T00:38:59.516Z,19.70
2023-02-11T00:40:00.510Z,19.60
2023-02-11T00:41:00.450Z,19.10
2023-02-11T00:42:00.513Z,20.10
2023-02-11T00:42:59.452Z,20.40
2023-02-11T00:43:59.441Z,19.30
2023-02-11T00:44:59.471Z,18.70
2023-02-11T00:46:00.355Z,19.70
2023-02-11T00:46:59.464Z,20.20
2023-02-11T00:47:59.419Z,19.30
2023-02-11T00:48:59.370Z,20.40
2023-02-11T00:49:59.367Z,19.50
2023-02-11T00:51:00.266Z,20.20
2023-02-11T00:51:59.348Z,19.60
2023-02-11T00:52:59.327Z,19.80
2023-02-11T00:54:00.282Z,18.10
2023-02-11T00:54:59.305Z,19.90
2023-02-11T00:56:00.234Z,17.80
2023-02-11T00:57:00.204Z,20.40
2023-02-11T00:57:59.285Z,20.70
2023-02-11T00:58:59.258Z,20.40
2023-02-11T00:59:59.306Z,19.00
2023-02-11T01:00:59.302Z,19.30
2023-02-11T01:01:59.208Z,18.60
2023-02-11T01:03:00.125Z,19.60
2023-02-11T01:03:59.292Z,19.00
2023-02-11T01:04:59.175Z,20.00
2023-02-11T01:05:59.153Z,20.40
2023-02-11T01:06:59.144Z,19.40
2023-02-11T01:08:00.091Z,20.00
2023-02-11T01:08:59.108Z,18.50
2023-02-11T01:09:59.104Z,19.40
2023-02-11T01:10:59.121Z,18.30
2023-02-11T01:11:59.077Z,19.00
2023-02-11T01:12:59.094Z,20.40
2023-02-11T01:14:00.007Z,19.10
2023-02-11T01:14:59.063Z,20.10
2023-02-11T01:15:59.096Z,20.20
2023-02-11T01:16:59.019Z,20.90
2023-02-11T01:17:59.017Z,19.30
2023-02-11T01:18:59.941Z,18.90
2023-02-11T01:19:58.972Z,19.60
2023-02-11T01:20:58.957Z,19.70
2023-02-11T01:21:58.948Z,19.30
2023-02-11T01:22:58.963Z,19.20
2023-02-11T01:23:58.960Z,18.10
2023-02-11T01:24:59.873Z,20.20
2023-02-11T01:25:58.915Z,19.60
2023-02-11T01:26:58.939Z,18.60
2023-02-11T01:27:59.910Z,19.10
2023-02-11T01:28:59.010Z,20.70
2023-02-11T01:29:58.891Z,19.50
2023-02-11T01:30:59.840Z,18.70
2023-02-11T01:31:58.872Z,19.30
2023-02-11T01:32:58.828Z,20.30
2023-02-11T01:33:58.785Z,17.70
2023-02-11T01:34:58.885Z,18.50
2023-02-11T01:35:58.804Z,18.80
2023-02-11T01:36:59.802Z,18.30
2023-02-11T01:37:58.739Z,18.70
2023-02-11T01:38:58.750Z,19.50
2023-02-11T01:39:58.761Z,18.70
2023-02-11T01:40:59.682Z,18.00
2023-02-11T01:42:00.579Z,19.20
2023-02-11T01:42:59.640Z,18.30
2023-02-11T01:43:58.706Z,19.80
2023-02-11T01:44:58.691Z,19.20
2023-02-11T01:45:58.979Z,18.70
2023-02-11T01:46:58.688Z,17.60
2023-02-11T01:47:59.560Z,18.00
2023-02-11T01:48:58.680Z,18.60
2023-02-11T01:49:58.596Z,19.20
2023-02-11T01:50:58.597Z,20.20
2023-02-11T01:51:58.658Z,19.40
2023-02-11T01:52:59.520Z,19.50
2023-02-11T01:53:58.656Z,18.50
2023-02-11T01:54:58.556Z,18.60
2023-02-11T01:55:58.525Z,17.60
2023-02-11T01:56:58.515Z,19.10
2023-02-11T01:57:58.492Z,19.10
2023-02-11T01:58:59.522Z,19.70
2023-02-11T01:59:58.491Z,19.50
2023-02-11T02:00:58.469Z,18.50
2023-02-11T02:01:58.554Z,19.90
2023-02-11T02:02:58.459Z,18.00
2023-02-11T02:03:58.641Z,20.00
2023-02-11T02:04:59.345Z,19.90
2023-02-11T02:05:58.443Z,19.30
2023-02-11T02:06:58.418Z,20.10
2023-02-11T02:07:58.403Z,18.80
2023-02-11T02:08:58.355Z,19.30
2023-02-11T02:09:59.324Z,18.20
2023-02-11T02:10:59.305Z,19.10
2023-02-11T02:11:58.343Z,19.10
2023-02-11T02:12:58.308Z,19.00
2023-02-11T02:13:58.277Z,19.20
2023-02-11T02:14:58.288Z,19.40
2023-02-11T02:15:58.314Z,20.20
2023-02-11T02:16:59.273Z,20.40
2023-02-11T02:17:58.413Z,19.60
2023-02-11T02:18:58.225Z,20.00
2023-02-11T02:19:58.315Z,19.90
2023-02-11T02:20:58.516Z,19.60
2023-02-11T02:21:58.184Z,19.90
2023-02-11T02:22:59.122Z,19.90
2023-02-11T02:23:58.193Z,21.70
2023-02-11T02:24:58.158Z,19.90
2023-02-11T02:25:58.136Z,20.40
2023-02-11T02:26:58.138Z,19.70
2023-02-11T02:27:59.111Z,19.20
2023-02-11T02:28:59.026Z,20.30
2023-02-11T02:29:58.085Z,19.50
2023-02-11T02:30:58.259Z,19.30
2023-02-11T02:31:58.045Z,19.70
2023-02-11T02:32:58.056Z,19.80
2023-02-11T02:33:58.092Z,19.80
2023-02-11T02:34:58.984Z,20.00
2023-02-11T02:35:58.011Z,19.00
2023-02-11T02:36:58.019Z,19.30
2023-02-11T02:37:57.986Z,19.40
2023-02-11T02:38:58.013Z,19.10
2023-02-11T02:39:57.992Z,19.80
2023-02-11T02:40:58.882Z,20.70
2023-02-11T02:41:58.017Z,20.00
2023-02-11T02:42:57.922Z,20.00
2023-02-11T02:43:57.925Z,20.00
2023-02-11T02:44:57.949Z,20.40
2023-02-11T02:45:58.862Z,20.70
2023-02-11T02:46:58.014Z,20.60
2023-02-11T02:47:57.867Z,19.70
2023-02-11T02:48:57.878Z,20.30
2023-02-11T02:49:57.923Z,20.80
2023-02-11T02:50:58.810Z,18.90
2023-02-11T02:51:57.822Z,22.30
2023-02-11T02:52:57.807Z,19.40
2023-02-11T02:53:57.780Z,19.70
2023-02-11T02:54:57.759Z,20.80
2023-02-11T02:55:57.754Z,20.30
2023-02-11T02:56:58.684Z,20.30
2023-02-11T02:57:57.759Z,20.40
2023-02-11T02:58:57.718Z,20.10
2023-02-11T02:59:57.780Z,20.70
2023-02-11T03:00:57.807Z,21.60
2023-02-11T03:01:58.625Z,20.00
2023-02-11T03:02:57.649Z,21.70
2023-02-11T03:03:57.780Z,21.60
2023-02-11T03:04:57.687Z,19.90
2023-02-11T03:05:57.635Z,20.80
2023-02-11T03:06:57.630Z,22.10
2023-02-11T03:07:58.623Z,20.50
2023-02-11T03:08:57.633Z,21.50
2023-02-11T03:09:57.603Z,21.80
2023-02-11T03:10:57.581Z,21.30
2023-02-11T03:11:57.564Z,22.60
2023-02-11T03:12:58.492Z,19.60
2023-02-11T03:13:57.530Z,20.50
2023-02-11T03:14:57.541Z,20.60
2023-02-11T03:15:57.606Z,21.60
2023-02-11T03:16:57.513Z,21.30
2023-02-11T03:17:57.481Z,20.60
2023-02-11T03:18:58.464Z,21.40
2023-02-11T03:19:57.473Z,21.20
2023-02-11T03:20:57.492Z,20.90
2023-02-11T03:21:57.419Z,20.20
2023-02-11T03:22:57.445Z,20.80
2023-02-11T03:23:58.413Z,21.20
2023-02-11T03:24:57.400Z,20.20
2023-02-11T03:25:57.547Z,20.60
2023-02-11T03:26:57.364Z,20.40
2023-02-11T03:27:57.393Z,21.00
2023-02-11T03:28:57.329Z,20.20
2023-02-11T03:29:58.306Z,21.70
2023-02-11T03:30:57.394Z,20.10
2023-02-11T03:31:57.355Z,21.90
2023-02-11T03:32:57.298Z,21.60
2023-02-11T03:33:57.372Z,20.40
2023-02-11T03:34:57.304Z,20.70
2023-02-11T03:35:58.190Z,20.80
2023-02-11T03:36:57.284Z,20.10
2023-02-11T03:37:57.216Z,21.00
2023-02-11T03:38:57.292Z,22.80
2023-02-11T03:39:57.248Z,22.90
2023-02-11T03:40:58.122Z,20.90
2023-02-11T03:41:57.200Z,22.40
2023-02-11T03:42:57.247Z,22.90
2023-02-11T03:43:57.158Z,21.00
2023-02-11T03:44:57.149Z,21.60
2023-02-11T03:45:58.159Z,22.60
2023-02-11T03:46:57.093Z,20.80
2023-02-11T03:47:57.109Z,22.70
2023-02-11T03:48:57.092Z,21.70
2023-02-11T03:49:57.101Z,21.90
2023-02-11T03:50:58.015Z,22.20
2023-02-11T03:51:57.096Z,22.10
2023-02-11T03:52:57.157Z,21.90
2023-02-11T03:53:57.137Z,21.10
2023-02-11T03:54:57.014Z,22.30
2023-02-11T03:55:57.957Z,21.30
2023-02-11T03:56:56.991Z,22.00
2023-02-11T03:57:56.977Z,22.80
2023-02-11T03:58:56.973Z,21.60
2023-02-11T03:59:56.964Z,21.70
2023-02-11T04:00:57.972Z,24.00
2023-02-11T04:01:56.940Z,22.00
2023-02-11T04:02:56.976Z,22.70
2023-02-11T04:03:56.885Z,23.40
2023-02-11T04:04:56.879Z,21.90
2023-02-11T04:05:57.838Z,23.70
2023-02-11T04:06:56.869Z,20.80
2023-02-11T04:07:56.863Z,22.30
2023-02-11T04:08:56.833Z,22.50
2023-02-11T04:09:56.837Z,22.00
2023-02-11T04:10:56.831Z,22.00
2023-02-11T04:11:57.758Z,23.10
2023-02-11T04:12:56.773Z,22.60
2023-02-11T04:13:56.763Z,22.30
2023-02-11T04:14:56.759Z,24.10
2023-02-11T04:15:56.841Z,23.20
2023-02-11T04:16:56.782Z,23.60
2023-02-11T04:17:57.642Z,22.20
2023-02-11T04:18:56.743Z,23.50
2023-02-11T04:19:56.710Z,21.90
2023-02-11T04:20:56.682Z,21.40
2023-02-11T04:21:56.682Z,23.60
2023-02-11T04:22:57.644Z,22.50
2023-02-11T04:23:56.660Z,21.70
2023-02-11T04:24:56.634Z,22.40
2023-02-11T04:25:56.600Z,22.10
2023-02-11T04:26:56.599Z,22.40
2023-02-11T04:27:57.772Z,21.60
2023-02-11T04:28:56.572Z,22.90
2023-02-11T04:29:56.579Z,23.50
2023-02-11T04:30:56.617Z,23.20
2023-02-11T04:31:56.654Z,23.70
2023-02-11T04:32:56.535Z,22.20
2023-02-11T04:33:57.486Z,23.50
2023-02-11T04:34:56.492Z,23.10
2023-02-11T04:35:56.600Z,22.20
2023-02-11T04:36:56.512Z,22.80
2023-02-11T04:37:56.630Z,23.50
2023-02-11T04:38:56.506Z,22.40
2023-02-11T04:39:57.365Z,22.80
2023-02-11T04:40:56.461Z,24.00
2023-02-11T04:41:56.410Z,24.20
2023-02-11T04:42:56.431Z,23.20
2023-02-11T04:43:56.456Z,23.70
2023-02-11T04:44:57.304Z,23.90
2023-02-11T04:45:56.400Z,24.30
2023-02-11T04:46:56.350Z,23.50
2023-02-11T04:47:56.348Z,23.00
2023-02-11T04:48:56.328Z,24.60
2023-02-11T04:49:56.312Z,25.70
2023-02-11T04:50:57.250Z,23.10
2023-02-11T04:51:56.298Z,24.40
2023-02-11T04:52:56.299Z,25.40
2023-02-11T04:53:56.332Z,23.90
2023-02-11T04:54:56.233Z,24.50
2023-02-11T04:56:02.500Z,23.30
2023-02-11T04:56:56.218Z,24.70
2023-02-11T04:57:56.226Z,24.50
2023-02-11T04:58:56.208Z,25.60
2023-02-11T04:59:56.178Z,24.50
2023-02-11T05:00:56.246Z,23.90
2023-02-11T05:01:57.113Z,24.90
2023-02-11T05:02:56.176Z,24.80
2023-02-11T05:04:55.051Z,23.90
2023-02-11T05:05:55.048Z,25.30
2023-02-11T05:06:58.344Z,24.00
2023-02-11T05:07:55.022Z,26.00
2023-02-11T05:08:54.994Z,24.60
2023-02-11T05:09:54.992Z,25.20
2023-02-11T05:10:55.032Z,26.10
2023-02-11T05:11:55.883Z,24.20
2023-02-11T05:12:56.089Z,25.60
2023-02-11T05:13:54.918Z,25.40
2023-02-11T05:14:54.908Z,25.60
2023-02-11T05:15:54.912Z,26.30
2023-02-11T05:16:55.839Z,26.20
2023-02-11T05:17:54.866Z,25.60
2023-02-11T05:18:54.872Z,25.80
2023-02-11T05:19:54.870Z,25.80
2023-02-11T05:20:54.863Z,24.00
2023-02-11T05:22:02.620Z,28.10
2023-02-11T05:22:57.257Z,24.70
2023-02-11T05:23:54.806Z,27.30
2023-02-11T05:24:54.820Z,25.50
2023-02-11T05:25:54.767Z,26.30
2023-02-11T05:26:54.756Z,25.40
2023-02-11T05:27:54.847Z,24.90
2023-02-11T05:28:55.690Z,26.30
2023-02-11T05:29:54.729Z,26.50
2023-02-11T05:30:54.814Z,24.90
2023-02-11T05:31:54.684Z,26.80
2023-02-11T05:32:54.688Z,24.90
2023-02-11T05:33:55.621Z,26.10
2023-02-11T05:34:54.671Z,23.50
2023-02-11T05:35:54.677Z,27.40
2023-02-11T05:36:54.737Z,25.00
2023-02-11T05:37:54.648Z,25.20
2023-02-11T05:38:55.556Z,26.60
2023-02-11T05:39:54.607Z,26.60
2023-02-11T05:40:54.618Z,28.30
2023-02-11T05:41:54.590Z,26.50
2023-02-11T05:42:54.591Z,28.10
2023-02-11T05:43:55.487Z,26.00
2023-02-11T05:44:54.552Z,26.90
2023-02-11T05:45:54.839Z,28.50
2023-02-11T05:46:54.559Z,26.70
2023-02-11T05:47:54.516Z,27.70
2023-02-11T05:48:55.424Z,26.90
2023-02-11T05:49:54.464Z,28.00
2023-02-11T05:50:54.510Z,27.90
2023-02-11T05:51:54.512Z,26.50
2023-02-11T05:52:54.501Z,27.30
2023-02-11T05:53:54.447Z,28.10
2023-02-11T05:54:55.332Z,26.60
2023-02-11T05:55:54.417Z,26.70
2023-02-11T05:56:54.381Z,26.40
2023-02-11T05:57:54.379Z,28.50
2023-02-11T05:58:54.369Z,26.90
2023-02-11T05:59:54.418Z,27.40
2023-02-11T06:00:55.272Z,27.50
2023-02-11T06:01:54.323Z,28.00
2023-02-11T06:02:54.402Z,28.20
2023-02-11T06:03:54.395Z,27.10
2023-02-11T06:04:54.282Z,29.10
2023-02-11T06:05:54.281Z,28.50
2023-02-11T06:06:55.214Z,28.10
2023-02-11T06:07:54.256Z,25.60
2023-02-11T06:08:54.254Z,26.80
2023-02-11T06:09:54.270Z,29.50
2023-02-11T06:10:54.212Z,28.40
2023-02-11T06:11:54.198Z,28.60
2023-02-11T06:12:55.188Z,28.60
2023-02-11T06:13:54.209Z,25.90
2023-02-11T06:14:54.172Z,28.20
2023-02-11T06:15:54.196Z,27.30
2023-02-11T06:16:54.131Z,29.70
2023-02-11T06:17:54.221Z,27.20
2023-02-11T06:18:55.041Z,29.20
2023-02-11T06:19:54.129Z,26.00
2023-02-11T06:20:54.094Z,27.70
2023-02-11T06:21:54.098Z,28.60
2023-02-11T06:22:54.061Z,30.00
2023-02-11T06:23:55.040Z,28.60
2023-02-11T06:25:01.287Z,26.70
2023-02-11T06:25:55.542Z,29.20
2023-02-11T06:26:54.015Z,29.30
2023-02-11T06:27:54.008Z,29.80
2023-02-11T06:28:53.993Z,28.40
2023-02-11T06:29:54.913Z,28.40
2023-02-11T06:30:54.024Z,28.90
2023-02-11T06:31:54.067Z,27.90
2023-02-11T06:32:54.027Z,30.30
2023-02-11T06:33:53.933Z,30.30
2023-02-11T06:34:53.918Z,26.60
2023-02-11T06:35:54.830Z,30.10
2023-02-11T06:36:53.889Z,30.10
2023-02-11T06:37:53.900Z,29.50
2023-02-11T06:38:53.877Z,29.10
2023-02-11T06:39:53.846Z,32.00
2023-02-11T06:40:54.821Z,30.00
2023-02-11T06:41:53.840Z,30.30
2023-02-11T06:42:53.825Z,31.70
2023-02-11T06:43:53.808Z,29.10
2023-02-11T06:44:53.782Z,30.00
2023-02-11T06:45:53.789Z,30.90
2023-02-11T06:46:54.762Z,31.30
2023-02-11T06:47:53.757Z,32.90
2023-02-11T06:48:53.848Z,32.20
2023-02-11T06:49:53.714Z,31.40
2023-02-11T06:50:53.723Z,30.30
2023-02-11T06:51:54.648Z,31.80
2023-02-11T06:52:53.707Z,32.10
2023-02-11T06:53:53.690Z,31.90
2023-02-11T06:54:53.681Z,30.00
2023-02-11T06:55:53.659Z,31.00
2023-02-11T06:56:53.626Z,31.60
2023-02-11T06:57:54.566Z,29.90
2023-02-11T06:58:53.635Z,29.80
2023-02-11T06:59:53.617Z,33.00
2023-02-11T07:00:53.583Z,29.60
2023-02-11T07:01:53.637Z,32.40
2023-02-11T07:02:54.560Z,30.40
2023-02-11T07:03:53.546Z,30.90
2023-02-11T07:04:53.542Z,30.80
2023-02-11T07:05:53.583Z,29.60
2023-02-11T07:06:53.526Z,31.40
2023-02-11T07:07:53.495Z,31.00
2023-02-11T07:08:54.436Z,31.10
2023-02-11T07:09:53.477Z,29.00
2023-02-11T07:10:53.485Z,29.40
2023-02-11T07:11:53.515Z,29.60
2023-02-11T07:12:53.431Z,29.10
2023-02-11T07:13:54.363Z,31.80
2023-02-11T07:14:53.409Z,30.50
2023-02-11T07:15:53.704Z,30.60
2023-02-11T07:16:53.386Z,30.60
2023-02-11T07:17:53.402Z,30.10
2023-02-11T07:18:54.337Z,31.90
2023-02-11T07:19:53.365Z,30.30
2023-02-11T07:20:53.328Z,30.70
2023-02-11T07:21:53.345Z,31.40
2023-02-11T07:22:53.302Z,31.30
2023-02-11T07:23:54.256Z,33.00
2023-02-11T07:24:53.307Z,29.00
2023-02-11T07:25:53.307Z,29.20
2023-02-11T07:26:53.268Z,29.20
2023-02-11T07:27:53.988Z,29.60
2023-02-11T07:28:53.258Z,30.80
2023-02-11T07:29:54.204Z,29.70
2023-02-11T07:30:53.268Z,30.50
2023-02-11T07:31:53.252Z,28.60
2023-02-11T07:32:53.218Z,27.60
2023-02-11T07:33:53.214Z,30.30
2023-02-11T07:34:53.238Z,29.30
2023-02-11T07:35:54.081Z,27.90
2023-02-11T07:36:53.276Z,29.50
2023-02-11T07:37:53.154Z,29.00
2023-02-11T07:38:53.186Z,29.30
2023-02-11T07:39:53.145Z,29.20
2023-02-11T07:40:53.092Z,28.00
2023-02-11T07:41:54.024Z,28.10
2023-02-11T07:42:53.081Z,26.80
2023-02-11T07:43:53.095Z,28.60
2023-02-11T07:44:53.069Z,27.20
2023-02-11T07:45:53.041Z,26.10
2023-02-11T07:46:53.061Z,30.10
2023-02-11T07:47:53.939Z,26.60
2023-02-11T07:48:53.003Z,27.70
2023-02-11T07:49:56.102Z,28.00
2023-02-11T07:50:52.958Z,28.70
2023-02-11T07:51:52.963Z,29.00
2023-02-11T07:52:52.973Z,27.40
2023-02-11T07:53:53.876Z,27.70
2023-02-11T07:54:52.933Z,25.70
2023-02-11T07:55:53.116Z,29.50
2023-02-11T07:56:52.951Z,29.10
2023-02-11T07:57:52.979Z,28.70
2023-02-11T07:58:52.935Z,27.30
2023-02-11T07:59:53.806Z,30.30
2023-02-11T08:00:52.887Z,27.10
2023-02-11T08:01:52.927Z,27.30
2023-02-11T08:02:52.875Z,28.60
2023-02-11T08:03:52.836Z,28.40
2023-02-11T08:04:53.734Z,28.90
2023-02-11T08:05:53.066Z,29.20
2023-02-11T08:06:52.840Z,28.50
2023-02-11T08:07:52.771Z,28.10
2023-02-11T08:08:52.849Z,27.10
2023-02-11T08:09:53.668Z,26.30
2023-02-11T08:10:52.909Z,24.40
2023-02-11T08:11:52.733Z,27.80
2023-02-11T08:12:52.729Z,28.00
2023-02-11T08:13:52.752Z,27.00
2023-02-11T08:14:53.613Z,27.40
2023-02-11T08:15:52.893Z,27.80
2023-02-11T08:16:52.721Z,28.30
2023-02-11T08:17:52.654Z,28.90
2023-02-11T08:18:52.674Z,28.10
2023-02-11T08:19:52.660Z,28.00
2023-02-11T08:20:53.547Z,28.40
2023-02-11T08:21:52.605Z,28.10
2023-02-11T08:22:52.644Z,28.30
2023-02-11T08:23:52.599Z,27.00
2023-02-11T08:24:52.605Z,28.60
2023-02-11T08:25:53.641Z,24.80
2023-02-11T08:26:52.542Z,28.60
2023-02-11T08:27:52.499Z,28.40
2023-02-11T08:28:52.520Z,28.20
2023-02-11T08:29:52.534Z,28.30
2023-02-11T08:30:53.756Z,27.10
2023-02-11T08:31:52.488Z,26.80
2023-02-11T08:32:52.460Z,27.80
2023-02-11T08:33:52.470Z,27.70
2023-02-11T08:34:52.421Z,26.90
2023-02-11T08:35:53.336Z,29.20
2023-02-11T08:36:52.398Z,29.60
2023-02-11T08:37:52.574Z,29.10
2023-02-11T08:38:52.358Z,28.60
2023-02-11T08:39:52.392Z,26.70
2023-02-11T08:40:52.541Z,29.20
2023-02-11T08:41:53.273Z,26.30
2023-02-11T08:42:52.330Z,25.70
2023-02-11T08:43:52.306Z,29.00
2023-02-11T08:44:52.326Z,29.00
2023-02-11T08:45:52.699Z,28.70
2023-02-11T08:46:52.292Z,27.20
2023-02-11T08:47:53.288Z,26.50
2023-02-11T08:48:52.270Z,27.90
2023-02-11T08:49:52.246Z,28.70
2023-02-11T08:50:52.225Z,26.70
2023-02-11T08:51:52.228Z,26.80
2023-02-11T08:52:53.113Z,26.70
2023-02-11T08:53:52.204Z,28.40
2023-02-11T08:54:52.187Z,28.00
2023-02-11T08:55:52.455Z,27.00
2023-02-11T08:56:52.154Z,28.10
2023-02-11T08:57:53.115Z,25.60
2023-02-11T08:58:52.145Z,28.80
2023-02-11T08:59:52.115Z,28.30
2023-02-11T09:00:52.543Z,27.60
2023-02-11T09:01:52.159Z,25.90
2023-02-11T09:02:52.090Z,25.50
2023-02-11T09:03:52.988Z,27.00
2023-02-11T09:04:52.053Z,26.80
2023-02-11T09:05:52.066Z,26.70
2023-02-11T09:06:52.038Z,28.10
2023-02-11T09:07:52.040Z,25.60
2023-02-11T09:08:52.951Z,25.50
2023-02-11T09:09:52.001Z,27.60
2023-02-11T09:10:52.925Z,26.70
2023-02-11T09:11:51.954Z,26.00
2023-02-11T09:12:51.956Z,26.70
2023-02-11T09:13:54.311Z,24.80
2023-02-11T09:14:52.862Z,22.90
2023-02-11T09:15:51.925Z,25.40
2023-02-11T09:16:52.068Z,27.50
2023-02-11T09:17:51.881Z,25.80
2023-02-11T09:18:51.900Z,26.00
2023-02-11T09:19:52.790Z,26.40
2023-02-11T09:20:52.066Z,22.60
2023-02-11T09:21:51.884Z,24.20
2023-02-11T09:22:51.816Z,22.60
2023-02-11T09:23:51.822Z,23.30
2023-02-11T09:24:52.711Z,24.80
2023-02-11T09:25:52.249Z,24.30
2023-02-11T09:26:51.774Z,23.70
2023-02-11T09:27:51.771Z,23.80
2023-02-11T09:28:51.781Z,25.10
2023-02-11T09:29:51.811Z,26.50
2023-02-11T09:30:52.988Z,23.20
2023-02-11T09:31:51.829Z,21.90
2023-02-11T09:32:51.701Z,22.10
2023-02-11T09:33:51.714Z,23.80
2023-02-11T09:34:51.697Z,23.10
2023-02-11T09:35:51.658Z,25.70
2023-02-11T09:36:52.588Z,23.60
2023-02-11T09:37:51.664Z,24.80
2023-02-11T09:38:51.634Z,24.30
2023-02-11T09:39:51.603Z,23.70
2023-02-11T09:40:51.858Z,23.00
2023-02-11T09:41:51.589Z,24.20
2023-02-11T09:42:52.517Z,24.00
2023-02-11T09:43:52.507Z,23.70
2023-02-11T09:44:51.561Z,24.30
2023-02-11T09:45:51.594Z,25.90
2023-02-11T09:46:51.520Z,23.10
2023-02-11T09:47:51.497Z,23.40
2023-02-11T09:48:52.450Z,24.00
2023-02-11T09:49:51.489Z,25.00
2023-02-11T09:50:51.784Z,23.60
2023-02-11T09:51:51.473Z,22.70
2023-02-11T09:52:51.460Z,24.20
2023-02-11T09:53:52.430Z,23.00
2023-02-11T09:54:51.431Z,22.10
2023-02-11T09:55:51.405Z,23.60
2023-02-11T09:56:51.413Z,23.30
2023-02-11T09:57:51.381Z,24.10
2023-02-11T09:58:52.288Z,21.20
2023-02-11T09:59:51.361Z,22.20
2023-02-11T10:00:51.607Z,21.90
2023-02-11T10:01:51.378Z,23.40
2023-02-11T10:02:51.401Z,23.10
2023-02-11T10:03:52.325Z,23.40
2023-02-11T10:04:51.337Z,22.80
2023-02-11T10:05:51.345Z,24.30
2023-02-11T10:06:51.260Z,24.50
2023-02-11T10:07:51.260Z,25.00
2023-02-11T10:08:51.254Z,23.30
2023-02-11T10:09:52.170Z,23.20
2023-02-11T10:10:51.525Z,23.00
2023-02-11T10:11:51.216Z,22.90
2023-02-11T10:12:51.196Z,22.10
2023-02-11T10:13:51.198Z,22.90
2023-02-11T10:14:51.161Z,24.00
2023-02-11T10:15:52.150Z,23.90
2023-02-11T10:16:51.155Z,22.80
2023-02-11T10:17:51.140Z,24.80
2023-02-11T10:18:51.136Z,23.20
2023-02-11T10:19:51.126Z,24.90
2023-02-11T10:20:52.304Z,24.30
2023-02-11T10:21:51.105Z,25.70
2023-02-11T10:22:51.094Z,26.20
2023-02-11T10:23:51.093Z,24.10
2023-02-11T10:24:51.048Z,24.20
2023-02-11T10:25:51.972Z,24.30
2023-02-11T10:26:51.032Z,26.30
2023-02-11T10:27:51.012Z,26.40
2023-02-11T10:28:50.997Z,24.70
2023-02-11T10:29:50.978Z,25.30
2023-02-11T10:30:52.382Z,25.80
2023-02-11T10:31:51.005Z,25.20
2023-02-11T10:32:50.961Z,25.60
2023-02-11T10:33:50.921Z,25.60
2023-02-11T10:34:50.921Z,25.60
2023-02-11T10:35:51.840Z,24.90
2023-02-11T10:36:50.912Z,24.20
2023-02-11T10:37:50.909Z,26.80
2023-02-11T10:38:50.860Z,26.00
2023-02-11T10:39:50.851Z,26.70
2023-02-11T10:40:51.053Z,23.90
2023-02-11T10:41:51.774Z,25.60
2023-02-11T10:42:52.973Z,26.20
2023-02-11T10:43:50.803Z,26.20
2023-02-11T10:44:50.807Z,26.50
2023-02-11T10:45:50.798Z,26.50
2023-02-11T10:46:50.779Z,23.50
2023-02-11T10:47:51.710Z,26.50
2023-02-11T10:48:50.766Z,25.70
2023-02-11T10:49:50.760Z,28.10
2023-02-11T10:50:51.037Z,26.40
2023-02-11T10:51:50.710Z,24.50
2023-02-11T10:52:50.720Z,25.70
2023-02-11T10:53:51.653Z,24.90
2023-02-11T10:54:50.669Z,24.70
2023-02-11T10:55:50.649Z,25.60
2023-02-11T10:56:50.663Z,26.10
2023-02-11T10:57:50.639Z,26.00
2023-02-11T10:58:51.570Z,25.60
2023-02-11T10:59:50.628Z,24.80
2023-02-11T11:00:50.836Z,26.40
2023-02-11T11:01:50.689Z,26.60
2023-02-11T11:02:50.565Z,23.60
2023-02-11T11:03:51.527Z,23.50
2023-02-11T11:05:52.552Z,22.10
2023-02-11T11:06:49.489Z,23.00
2023-02-11T11:07:49.780Z,27.10
2023-02-11T11:08:50.441Z,24.70
2023-02-11T11:09:50.337Z,26.60
2023-02-11T11:10:49.796Z,25.00
2023-02-11T11:11:49.621Z,26.70
2023-02-11T11:12:49.415Z,26.70
2023-02-11T11:13:50.274Z,25.30
2023-02-11T11:14:49.343Z,22.80
2023-02-11T11:15:49.519Z,25.80
2023-02-11T11:16:49.454Z,26.10
2023-02-11T11:17:49.423Z,25.50
2023-02-11T11:18:52.092Z,25.60
2023-02-11T11:19:49.278Z,25.70
2023-02-11T11:20:49.633Z,24.20
2023-02-11T11:21:49.328Z,26.30
2023-02-11T11:22:49.304Z,27.50
2023-02-11T11:23:50.684Z,27.40
2023-02-11T11:24:50.178Z,25.50
2023-02-11T11:25:49.744Z,29.30
2023-02-11T11:26:49.636Z,26.20
2023-02-11T11:27:49.250Z,27.70
2023-02-11T11:28:49.330Z,27.10
2023-02-11T11:29:50.198Z,28.30
2023-02-11T11:30:49.649Z,26.80
2023-02-11T11:31:49.206Z,26.10
2023-02-11T11:32:49.113Z,25.60
2023-02-11T11:33:50.302Z,25.00
2023-02-11T11:34:50.149Z,24.30
2023-02-11T11:35:49.903Z,25.00
2023-02-11T11:36:49.292Z,25.10
2023-02-11T11:37:49.287Z,25.30
2023-02-11T11:38:49.186Z,24.80
2023-02-11T11:39:49.233Z,24.30
2023-02-11T11:40:50.506Z,23.60
2023-02-11T11:41:49.110Z,24.70
2023-02-11T11:42:48.997Z,23.80
2023-02-11T11:43:49.019Z,24.70
2023-02-11T11:44:49.768Z,23.30
2023-02-11T11:45:50.461Z,24.40
2023-02-11T11:46:48.954Z,22.50
2023-02-11T11:47:48.984Z,20.60
2023-02-11T11:48:49.080Z,23.00
2023-02-11T11:49:48.924Z,20.90
2023-02-11T11:50:50.301Z,20.60
2023-02-11T11:51:48.995Z,21.40
2023-02-11T11:52:49.934Z,22.60
2023-02-11T11:53:48.893Z,22.10
2023-02-11T11:54:48.856Z,20.30
2023-02-11T11:55:50.588Z,21.40
2023-02-11T11:56:49.310Z,21.10
2023-02-11T11:57:48.826Z,20.40
2023-02-11T11:58:48.911Z,21.70
2023-02-11T11:59:48.838Z,21.60
2023-02-11T12:00:49.165Z,19.70
2023-02-11T12:01:55.407Z,21.30
2023-02-11T12:02:48.875Z,21.20
2023-02-11T12:03:48.953Z,20.80
2023-02-11T12:04:48.701Z,19.90
2023-02-11T12:05:48.759Z,20.30
2023-02-11T12:06:49.638Z,19.60
2023-02-11T12:07:48.664Z,20.80
2023-02-11T12:08:48.662Z,20.10
2023-02-11T12:09:48.788Z,20.40
2023-02-11T12:10:48.858Z,19.80
2023-02-11T12:11:48.706Z,19.90
2023-02-11T12:12:49.550Z,17.40
2023-02-11T12:13:48.739Z,18.70
2023-02-11T12:14:48.948Z,18.60
2023-02-11T12:15:48.645Z,18.80
2023-02-11T12:16:48.722Z,18.10
2023-02-11T12:17:49.556Z,17.50
2023-02-11T12:18:48.575Z,19.10
2023-02-11T12:19:48.755Z,17.90
2023-02-11T12:20:48.839Z,18.40
2023-02-11T12:21:48.484Z,19.00
2023-02-11T12:22:49.445Z,17.40
2023-02-11T12:23:48.493Z,18.50
2023-02-11T12:24:48.425Z,17.60
2023-02-11T12:25:48.453Z,17.20
2023-02-11T12:26:48.439Z,18.20
2023-02-11T12:27:48.419Z,18.10
2023-02-11T12:28:49.449Z,18.70
2023-02-11T12:29:48.425Z,15.60
2023-02-11T12:30:48.666Z,16.70
2023-02-11T12:31:48.398Z,17.10
2023-02-11T12:32:48.361Z,15.90
2023-02-11T12:33:48.340Z,16.50
2023-02-11T12:34:49.290Z,17.20
2023-02-11T12:35:48.310Z,17.30
2023-02-11T12:36:48.321Z,16.30
2023-02-11T12:37:48.381Z,16.80
2023-02-11T12:38:48.272Z,16.30
2023-02-11T12:39:48.310Z,16.30
2023-02-11T12:40:49.569Z,15.70
2023-02-11T12:41:48.275Z,15.30
2023-02-11T12:42:48.306Z,16.20
2023-02-11T12:43:48.516Z,15.50
2023-02-11T12:44:48.264Z,15.10
2023-02-11T12:45:49.284Z,15.80
2023-02-11T12:46:48.142Z,15.60
2023-02-11T12:47:48.790Z,15.70
2023-02-11T12:48:48.163Z,16.20
2023-02-11T12:49:48.135Z,15.70
2023-02-11T12:50:48.291Z,15.40
2023-02-11T12:51:49.016Z,15.90
2023-02-11T12:52:48.174Z,15.60
2023-02-11T12:53:48.120Z,14.30